Time;durP1;ratioP1;P1;durP2;ratioP2;P2;SDS_P1;SDS_P2;PMS_P1;PMS_P2;Temp;Humidity;BMP_temperature;BMP_pressure;BME280_temperature;BME280_humidity;BME280_pressure;Samples;Min_cycle;Max_cycle;Signal;HPM_P1;HPM_P2
2023/01/01 00:00:08;;;;;;;6.57;2.67;;;19.20;89.40;;;;;;5072077;28;20035;-64
2023/01/01 00:02:34;;;;;;;6.10;2.60;;;19.20;89.70;;;;;;5072631;28;20033;-64
2023/01/01 00:04:59;;;;;;;7.38;2.42;;;19.20;89.70;;;;;;5072487;28;20118;-64
2023/01/01 00:07:25;;;;;;;4.68;2.30;;;19.20;89.80;;;;;;5072956;28;20029;-64
2023/01/01 00:12:35;;;;;;;6.75;2.50;;;19.20;90.00;;;;;;5072745;28;20052;-64
2023/01/01 00:15:00;;;;;;;8.82;1.98;;;19.20;89.80;;;;;;5072852;28;20028;-64
2023/01/01 00:17:28;;;;;;;8.20;1.83;;;19.10;89.70;;;;;;5072619;28;20461;-64
2023/01/01 00:19:54;;;;;;;5.63;1.80;;;19.20;89.50;;;;;;5072390;28;20029;-63
2023/01/01 00:22:20;;;;;;;7.95;1.60;;;19.20;89.40;;;;;;5072665;28;20035;-65
2023/01/01 00:24:45;;;;;;;7.28;1.98;;;19.20;89.20;;;;;;5072465;28;20078;-64
2023/01/01 00:27:11;;;;;;;5.85;2.20;;;19.10;89.20;;;;;;5072493;28;20024;-64
2023/01/01 00:29:36;;;;;;;5.43;1.75;;;19.10;89.00;;;;;;5071984;28;20033;-63
2023/01/01 00:32:02;;;;;;;4.68;2.17;;;19.10;89.50;;;;;;5072399;28;20028;-64
2023/01/01 00:34:28;;;;;;;6.68;2.00;;;19.20;89.20;;;;;;5072334;28;20476;-64
2023/01/01 00:36:53;;;;;;;5.85;2.00;;;19.10;89.40;;;;;;5072295;28;20020;-64
2023/01/01 00:39:19;;;;;;;5.78;1.48;;;19.10;89.20;;;;;;5072397;28;20166;-64
2023/01/01 00:41:44;;;;;;;7.20;2.20;;;19.10;89.20;;;;;;5072146;28;20032;-64
2023/01/01 00:44:10;;;;;;;4.57;2.08;;;19.00;89.20;;;;;;5071011;28;20027;-64
2023/01/01 00:46:35;;;;;;;6.43;1.92;;;19.10;89.30;;;;;;5072326;28;20031;-64
2023/01/01 00:49:01;;;;;;;9.13;2.35;;;19.00;89.40;;;;;;5072045;28;20024;-64
2023/01/01 00:51:27;;;;;;;6.47;2.05;;;19.00;89.00;;;;;;5072255;28;20029;-64
2023/01/01 00:53:52;;;;;;;7.75;2.58;;;19.10;89.00;;;;;;5071086;28;20036;-64
2023/01/01 00:56:18;;;;;;;6.40;2.35;;;19.10;88.90;;;;;;5071883;28;20029;-64
2023/01/01 00:58:44;;;;;;;6.15;2.10;;;19.10;89.00;;;;;;5072131;28;20031;-64
2023/01/01 01:01:10;;;;;;;4.97;2.10;;;19.10;88.90;;;;;;5072453;28;20028;-64
2023/01/01 01:03:38;;;;;;;5.13;1.85;;;19.00;88.80;;;;;;5072057;28;20035;-64
2023/01/01 01:06:03;;;;;;;12.57;2.35;;;19.00;88.60;;;;;;5072139;28;20028;-65
2023/01/01 01:08:31;;;;;;;5.93;2.20;;;19.00;88.60;;;;;;5072867;28;20029;-64
2023/01/01 01:11:17;;;;;;;4.40;1.80;;;19.00;88.70;;;;;;5075987;28;20025;-64
2023/01/01 01:13:44;;;;;;;6.95;1.58;;;19.00;88.80;;;;;;5075769;28;20115;-64
2023/01/01 01:16:16;;;;;;;8.10;1.67;;;19.10;88.50;;;;;;5075723;28;20017;-64
2023/01/01 01:18:42;;;;;;;3.47;1.48;;;18.90;88.70;;;;;;5075558;28;20036;-64
2023/01/01 01:21:07;;;;;;;5.38;1.88;;;19.00;88.50;;;;;;5075650;28;20012;-65
2023/01/01 01:23:33;;;;;;;7.55;1.95;;;19.00;87.90;;;;;;5075775;28;20036;-64
2023/01/01 01:26:16;;;;;;;7.20;2.33;;;19.00;88.20;;;;;;5075388;28;20473;-64
2023/01/01 01:28:42;;;;;;;;;;;19.00;88.10;;;;;;5076001;28;20033;-64
2023/01/01 01:31:08;;;;;;;6.63;1.85;;;19.00;88.10;;;;;;5075324;28;19981;-65
2023/01/01 01:33:34;;;;;;;6.22;1.70;;;19.00;87.70;;;;;;5075505;28;20044;-65
2023/01/01 01:36:00;;;;;;;4.63;1.60;;;18.90;87.70;;;;;;5075265;28;20157;-64
2023/01/01 01:38:26;;;;;;;5.15;2.03;;;18.90;87.70;;;;;;5074231;28;20030;-64
2023/01/01 01:40:52;;;;;;;6.53;2.03;;;19.00;87.80;;;;;;5075011;28;20131;-64
2023/01/01 01:43:44;;;;;;;3.97;1.85;;;18.90;87.30;;;;;;5075398;28;20035;-64
2023/01/01 01:46:15;;;;;;;4.68;1.65;;;18.90;87.50;;;;;;5075197;28;20025;-65
2023/01/01 01:48:45;;;;;;;4.00;1.60;;;18.90;87.60;;;;;;5075024;28;20016;-64
2023/01/01 01:51:14;;;;;;;5.57;2.08;;;18.90;87.50;;;;;;5075078;28;20047;-64
2023/01/01 01:54:02;;;;;;;5.38;1.95;;;18.80;87.60;;;;;;5074998;28;20044;-64
2023/01/01 01:56:35;;;;;;;3.63;1.17;;;18.80;87.70;;;;;;5074678;28;20174;-64
2023/01/01 01:59:01;;;;;;;4.93;1.70;;;18.90;88.30;;;;;;5075156;28;20024;-64
2023/01/01 02:01:27;;;;;;;4.07;1.48;;;18.90;87.40;;;;;;5075292;28;20028;-64
2023/01/01 02:03:58;;;;;;;6.10;1.70;;;18.90;87.10;;;;;;5075076;28;20025;-64
2023/01/01 02:06:28;;;;;;;4.95;1.10;;;18.90;87.00;;;;;;5074877;28;20086;-65
2023/01/01 02:08:56;;;;;;;5.25;1.75;;;18.90;86.70;;;;;;5074641;28;20032;-64
2023/01/01 02:11:22;;;;;;;3.67;1.35;;;18.90;87.10;;;;;;5074821;28;20042;-64
2023/01/01 02:13:49;;;;;;;3.72;1.50;;;18.90;87.20;;;;;;5074709;28;20446;-64
2023/01/01 02:16:42;;;;;;;7.25;2.15;;;18.90;87.20;;;;;;5073367;28;20081;-64
2023/01/01 02:19:25;;;;;;;3.65;1.33;;;18.80;87.30;;;;;;5074267;28;20094;-64
2023/01/01 02:22:29;;;;;;;3.45;1.25;;;18.90;87.30;;;;;;5074467;28;20046;-65
2023/01/01 02:25:22;;;;;;;6.32;1.80;;;18.80;87.40;;;;;;5074178;28;20051;-64
2023/01/01 02:27:56;;;;;;;5.40;1.45;;;18.80;87.00;;;;;;5074486;28;20103;-64
2023/01/01 02:30:22;;;;;;;4.88;1.45;;;18.70;86.60;;;;;;5074253;28;20024;-64
2023/01/01 02:32:53;;;;;;;4.50;1.65;;;18.80;86.80;;;;;;5074379;28;20032;-64
2023/01/01 02:35:37;;;;;;;3.97;1.02;;;18.80;86.90;;;;;;5074337;28;20090;-64
2023/01/01 02:38:11;;;;;;;3.70;1.70;;;18.80;86.90;;;;;;5074008;28;20027;-64
2023/01/01 02:40:43;;;;;;;3.83;1.42;;;18.80;86.70;;;;;;5074294;28;20036;-64
2023/01/01 02:43:08;;;;;;;5.10;1.40;;;18.80;86.70;;;;;;5073058;28;20104;-64
2023/01/01 02:45:34;;;;;;;5.22;1.42;;;18.80;86.50;;;;;;5074346;28;20099;-64
2023/01/01 02:48:43;;;;;;;7.68;1.58;;;18.80;86.70;;;;;;5073780;28;20468;-64
2023/01/01 02:51:12;;;;;;;3.63;1.33;;;18.70;86.60;;;;;;5074483;28;20025;-64
2023/01/01 02:53:46;;;;;;;4.95;1.20;;;18.70;86.50;;;;;;5073654;28;20028;-64
2023/01/01 02:56:35;;;;;;;5.05;1.30;;;18.70;86.40;;;;;;5073911;28;20020;-63
2023/01/01 03:02:50;;;;;;;4.93;1.48;;;18.70;86.60;;;;;;5074042;28;20050;-65
2023/01/01 03:05:24;;;;;;;5.10;1.38;;;18.70;86.70;;;;;;5072635;28;20020;-64
2023/01/01 03:08:14;;;;;;;4.85;1.80;;;18.70;86.60;;;;;;5054010;28;20478;-64
2023/01/01 03:10:53;;;;;;;3.63;1.27;;;18.70;86.70;;;;;;5052180;28;20381;-64
2023/01/01 03:13:33;;;;;;;3.67;1.45;;;18.70;86.50;;;;;;5051979;28;20040;-64
2023/01/01 03:16:15;;;;;;;4.72;1.67;;;18.70;86.30;;;;;;5053321;28;20444;-64
2023/01/01 03:19:09;;;;;;;3.03;1.42;;;18.70;86.70;;;;;;5051843;28;20117;-63
2023/01/01 03:21:53;;;;;;;6.13;1.70;;;18.70;86.70;;;;;;5053291;28;20550;-64
2023/01/01 03:24:35;;;;;;;5.50;1.48;;;18.70;86.80;;;;;;5052017;28;20064;-64
2023/01/01 03:27:05;;;;;;;5.80;1.35;;;18.60;86.90;;;;;;5053643;28;20029;-64
2023/01/01 03:29:33;;;;;;;4.57;1.42;;;18.60;86.80;;;;;;5053170;28;20033;-64
2023/01/01 03:32:03;;;;;;;3.50;1.20;;;18.60;87.10;;;;;;5052579;28;20025;-64
2023/01/01 03:34:37;;;;;;;5.72;1.58;;;18.70;86.90;;;;;;5053227;28;20167;-65
2023/01/01 03:37:11;;;;;;;4.53;1.40;;;18.60;86.70;;;;;;5052848;28;20438;-64
2023/01/01 03:39:46;;;;;;;4.78;1.65;;;18.70;87.00;;;;;;5053028;28;20105;-65
2023/01/01 03:42:27;;;;;;;6.63;1.35;;;18.60;86.70;;;;;;5052106;28;20375;-64
2023/01/01 03:45:00;;;;;;;4.30;0.95;;;18.60;87.10;;;;;;5053009;28;20048;-65
2023/01/01 03:47:26;;;;;;;5.78;1.77;;;18.60;87.10;;;;;;5052790;28;20025;-65
2023/01/01 03:49:52;;;;;;;4.13;1.10;;;18.60;87.10;;;;;;5052825;28;20021;-64
2023/01/01 03:52:36;;;;;;;4.35;1.17;;;18.60;87.20;;;;;;5052737;28;20029;-64
2023/01/01 03:55:11;;;;;;;11.50;1.63;;;18.60;87.10;;;;;;5052795;28;20164;-64
2023/01/01 03:57:54;;;;;;;4.38;1.15;;;18.70;87.20;;;;;;5053277;28;20478;-64
2023/01/01 04:00:23;;;;;;;4.05;1.35;;;18.60;87.60;;;;;;5052783;28;20489;-64
2023/01/01 04:02:57;;;;;;;5.40;1.17;;;18.60;87.20;;;;;;5052922;28;20016;-63
2023/01/01 04:05:24;;;;;;;3.97;1.48;;;18.60;87.20;;;;;;5052332;28;20090;-64
2023/01/01 04:07:50;;;;;;;5.18;1.55;;;18.60;87.40;;;;;;5052731;28;20036;-64
2023/01/01 04:10:16;;;;;;;4.28;1.45;;;18.60;87.50;;;;;;5052640;28;20032;-64
2023/01/01 04:12:49;;;;;;;4.88;1.55;;;18.60;87.40;;;;;;5051309;28;20065;-64
2023/01/01 04:15:20;;;;;;;3.67;1.20;;;18.60;87.60;;;;;;5052583;28;20029;-64
2023/01/01 04:17:46;;;;;;;6.60;1.23;;;18.60;87.60;;;;;;5052704;28;20482;-64
2023/01/01 04:20:12;;;;;;;6.43;1.23;;;18.60;87.40;;;;;;5052117;28;20024;-63
2023/01/01 04:22:39;;;;;;;4.88;1.60;;;18.50;87.50;;;;;;5052507;28;20048;-64
2023/01/01 04:25:05;;;;;;;5.90;1.45;;;18.60;87.50;;;;;;5052288;28;20021;-64
2023/01/01 04:27:31;;;;;;;8.48;1.55;;;18.60;87.70;;;;;;5052453;28;20482;-64
2023/01/01 04:29:57;;;;;;;5.03;1.55;;;18.60;87.70;;;;;;5052258;28;20025;-64
2023/01/01 04:32:22;;;;;;;4.68;1.15;;;18.60;87.80;;;;;;5052659;28;20453;-64
2023/01/01 04:34:48;;;;;;;5.95;1.35;;;18.60;88.10;;;;;;5051959;28;20036;-65
2023/01/01 04:37:13;;;;;;;6.85;1.48;;;18.50;88.00;;;;;;5052262;28;20036;-64
2023/01/01 04:39:40;;;;;;;4.15;1.10;;;18.60;88.20;;;;;;5052218;28;20029;-64
2023/01/01 04:42:05;;;;;;;3.78;1.35;;;18.50;88.00;;;;;;5053748;28;20380;-64
2023/01/01 04:44:31;;;;;;;5.65;1.45;;;18.50;88.30;;;;;;5056592;28;20518;-64
2023/01/01 04:46:56;;;;;;;4.28;1.40;;;18.50;88.20;;;;;;5055099;28;20029;-64
2023/01/01 04:49:22;;;;;;;5.32;1.30;;;18.50;88.40;;;;;;5056094;28;20033;-65
2023/01/01 04:51:47;;;;;;;3.80;1.45;;;18.50;88.60;;;;;;5056232;28;20033;-64
2023/01/01 04:54:13;;;;;;;3.20;1.17;;;18.50;88.60;;;;;;5056030;28;20115;-64
2023/01/01 04:56:39;;;;;;;3.47;1.30;;;18.50;88.60;;;;;;5056319;28;20117;-64
2023/01/01 04:59:04;;;;;;;7.90;1.38;;;18.50;88.70;;;;;;5056193;28;20024;-64
2023/01/01 05:01:30;;;;;;;6.25;1.60;;;18.40;89.40;;;;;;5055980;28;20028;-64
2023/01/01 05:03:58;;;;;;;6.28;1.20;;;18.40;89.80;;;;;;5056123;28;20032;-67
2023/01/01 05:06:25;;;;;;;4.30;1.25;;;18.40;89.30;;;;;;5055962;28;20036;-64
2023/01/01 05:08:54;;;;;;;4.82;1.63;;;18.40;89.50;;;;;;5055933;28;20021;-64
2023/01/01 05:11:25;;;;;;;6.03;1.60;;;18.40;89.70;;;;;;5056025;28;20025;-65
2023/01/01 05:13:54;;;;;;;5.20;1.10;;;18.40;89.40;;;;;;5056036;28;20112;-64
2023/01/01 05:16:25;;;;;;;5.18;1.45;;;18.40;89.70;;;;;;5055761;28;20021;-64
2023/01/01 05:18:51;;;;;;;4.15;1.05;;;18.40;89.60;;;;;;5055672;28;20021;-65
2023/01/01 05:21:20;;;;;;;3.70;1.08;;;18.40;89.50;;;;;;5055602;28;20033;-64
2023/01/01 05:23:45;;;;;;;5.90;1.38;;;18.40;89.50;;;;;;5055771;28;20025;-64
2023/01/01 05:26:13;;;;;;;4.15;1.70;;;18.40;89.50;;;;;;5055656;28;20103;-64
2023/01/01 05:28:39;;;;;;;4.47;1.30;;;18.40;89.70;;;;;;5055501;28;20469;-64
2023/01/01 05:31:12;;;;;;;3.70;0.80;;;18.40;89.60;;;;;;5055465;28;20024;-63
2023/01/01 05:33:38;;;;;;;3.08;0.80;;;18.40;89.60;;;;;;5055178;28;20477;-64
2023/01/01 05:36:05;;;;;;;4.57;1.08;;;18.40;89.60;;;;;;5055401;28;20025;-64
2023/01/01 05:38:31;;;;;;;3.38;1.00;;;18.40;89.80;;;;;;5055451;28;20412;-63
2023/01/01 05:40:57;;;;;;;3.05;1.20;;;18.30;89.80;;;;;;5055359;28;20537;-64
2023/01/01 05:43:23;;;;;;;4.90;1.13;;;18.40;89.90;;;;;;5054161;28;20025;-64
2023/01/01 05:45:48;;;;;;;3.10;1.00;;;18.40;90.00;;;;;;5055424;28;20060;-64
2023/01/01 05:48:14;;;;;;;3.15;0.85;;;18.40;90.00;;;;;;5054831;28;20100;-64
2023/01/01 05:50:39;;;;;;;3.63;1.08;;;18.40;90.00;;;;;;5054970;28;20033;-64
2023/01/01 05:53:05;;;;;;;4.45;0.90;;;18.40;90.00;;;;;;5054398;28;20044;-64
2023/01/01 05:55:30;;;;;;;4.00;1.05;;;18.40;90.10;;;;;;5055216;28;20036;-64
2023/01/01 05:57:56;;;;;;;3.15;1.00;;;18.30;90.10;;;;;;5055301;28;20025;-64
2023/01/01 06:00:22;;;;;;;4.40;0.75;;;18.30;90.10;;;;;;5054503;28;20028;-64
2023/01/01 06:02:51;;;;;;;5.32;0.93;;;18.40;90.10;;;;;;5055303;28;20037;-64
2023/01/01 06:05:16;;;;;;;4.40;1.15;;;18.30;90.20;;;;;;5053736;28;20229;-64
2023/01/01 06:07:42;;;;;;;4.63;0.90;;;18.30;90.30;;;;;;5053375;28;20486;-64
2023/01/01 06:10:08;;;;;;;6.15;1.25;;;18.40;90.30;;;;;;5054829;28;20509;-64
2023/01/01 06:12:33;;;;;;;3.20;0.70;;;18.30;90.30;;;;;;5054720;28;20367;-65
2023/01/01 06:14:59;;;;;;;5.57;0.98;;;18.40;90.30;;;;;;5054764;28;20048;-64
2023/01/01 06:17:24;;;;;;;4.25;0.90;;;18.30;90.40;;;;;;5054221;28;20044;-63
2023/01/01 06:19:50;;;;;;;4.13;0.95;;;18.30;90.50;;;;;;5054959;28;20021;-64
2023/01/01 06:22:15;;;;;;;4.05;0.80;;;18.30;90.40;;;;;;5054491;28;20021;-64
2023/01/01 06:24:41;;;;;;;3.28;0.85;;;18.30;90.50;;;;;;5054712;28;20033;-64
2023/01/01 06:27:07;;;;;;;2.95;0.90;;;18.20;90.50;;;;;;5054368;28;20108;-64
2023/01/01 06:29:33;;;;;;;4.50;1.00;;;18.20;90.50;;;;;;5054555;28;20036;-64
2023/01/01 06:31:58;;;;;;;3.97;0.73;;;18.20;90.50;;;;;;5053881;28;20044;-64
2023/01/01 06:34:24;;;;;;;3.75;0.55;;;18.30;90.60;;;;;;5054450;28;20083;-64
2023/01/01 06:36:49;;;;;;;2.15;0.60;;;18.20;90.60;;;;;;5054417;28;20087;-64
2023/01/01 06:39:15;;;;;;;2.42;0.50;;;18.20;90.60;;;;;;5054267;28;20029;-64
2023/01/01 06:41:40;;;;;;;3.67;0.65;;;18.10;90.60;;;;;;5054772;28;20064;-65
2023/01/01 06:44:06;;;;;;;4.57;0.93;;;18.20;90.70;;;;;;5054322;28;20037;-64
2023/01/01 06:46:33;;;;;;;3.50;0.93;;;18.10;90.80;;;;;;5053793;28;20033;-65
2023/01/01 06:49:04;;;;;;;4.90;0.73;;;18.10;90.80;;;;;;5052868;28;20378;-64
2023/01/01 06:51:32;;;;;;;4.40;1.30;;;18.10;90.80;;;;;;5054236;28;20024;-64
2023/01/01 06:53:59;;;;;;;2.75;0.82;;;18.10;90.70;;;;;;5053985;28;20474;-64
2023/01/01 06:56:25;;;;;;;3.85;1.05;;;18.10;90.80;;;;;;5053980;28;20017;-63
2023/01/01 06:58:51;;;;;;;2.97;0.85;;;18.10;90.90;;;;;;5053749;28;20035;-64
2023/01/01 07:01:22;;;;;;;4.68;1.00;;;18.00;90.90;;;;;;5054121;28;20488;-64
2023/01/01 07:03:53;;;;;;;4.68;0.90;;;18.00;91.00;;;;;;5053762;28;20047;-64
2023/01/01 07:06:18;;;;;;;3.55;0.85;;;18.00;91.00;;;;;;5052833;28;20025;-64
2023/01/01 07:08:44;;;;;;;5.75;1.08;;;18.00;91.00;;;;;;5053615;28;20028;-64
2023/01/01 07:11:10;;;;;;;4.43;0.73;;;18.00;91.00;;;;;;5053868;28;20059;-64
2023/01/01 07:13:35;;;;;;;3.95;0.90;;;18.00;91.00;;;;;;5052023;28;20477;-64
2023/01/01 07:16:01;;;;;;;3.53;0.80;;;17.90;91.20;;;;;;5053607;28;20035;-64
2023/01/01 07:18:26;;;;;;;4.53;1.00;;;18.00;91.20;;;;;;5053573;28;20096;-64
2023/01/01 07:20:55;;;;;;;4.38;0.88;;;17.90;91.30;;;;;;5053508;28;20083;-64
2023/01/01 07:23:20;;;;;;;5.80;0.73;;;17.80;91.50;;;;;;5053258;28;20067;-64
2023/01/01 07:25:49;;;;;;;4.25;0.90;;;17.90;91.30;;;;;;5053467;28;20021;-64
2023/01/01 07:28:14;;;;;;;4.72;0.73;;;17.80;91.40;;;;;;5052843;28;20123;-66
2023/01/01 07:30:40;;;;;;;5.18;1.17;;;17.80;91.70;;;;;;5062023;28;20028;-65
2023/01/01 07:33:09;;;;;;;3.72;0.85;;;17.80;91.40;;;;;;5072687;28;20064;-64
2023/01/01 07:35:35;;;;;;;4.82;1.20;;;17.80;91.30;;;;;;5072926;28;20068;-65
2023/01/01 07:38:00;;;;;;;4.55;1.15;;;17.90;91.40;;;;;;5070103;28;20143;-64
2023/01/01 07:40:26;;;;;;;4.13;1.10;;;17.90;91.40;;;;;;5069464;28;20503;-64
2023/01/01 07:42:51;;;;;;;6.13;1.40;;;17.70;91.70;;;;;;5067722;28;20028;-64
2023/01/01 07:45:17;;;;;;;5.85;1.25;;;17.50;92.00;;;;;;5065896;28;20013;-64
2023/01/01 07:47:42;;;;;;;9.52;1.95;;;17.50;92.20;;;;;;5070758;28;20028;-64
2023/01/01 07:50:15;;;;;;;8.63;1.65;;;17.10;93.00;;;;;;5068976;28;20069;-64
2023/01/01 07:52:41;;;;;;;5.90;1.75;;;16.80;94.10;;;;;;5070168;28;20024;-65
2023/01/01 07:55:10;;;;;;;5.75;2.10;;;16.70;94.60;;;;;;5065486;28;20033;-65
2023/01/01 07:57:35;;;;;;;8.13;2.00;;;16.80;94.40;;;;;;5064796;28;20029;-64
2023/01/01 08:00:01;;;;;;;6.95;1.17;;;16.90;94.40;;;;;;5067919;28;20025;-65
2023/01/01 08:02:26;;;;;;;6.88;1.40;;;17.10;94.30;;;;;;5071197;28;20040;-64
2023/01/01 08:04:52;;;;;;;4.88;1.33;;;17.20;94.00;;;;;;5072476;28;20020;-64
2023/01/01 08:07:18;;;;;;;4.45;1.55;;;17.30;93.40;;;;;;5070271;28;20037;-64
2023/01/01 08:09:43;;;;;;;5.38;1.20;;;17.40;93.40;;;;;;5071351;28;20028;-65
2023/01/01 08:12:08;;;;;;;6.70;2.00;;;17.40;93.10;;;;;;5070982;28;20033;-64
2023/01/01 08:14:34;;;;;;;5.50;1.42;;;17.50;93.20;;;;;;5068445;28;20070;-64
2023/01/01 08:17:00;;;;;;;5.05;1.20;;;17.50;92.90;;;;;;5069418;28;20017;-64
2023/01/01 08:19:25;;;;;;;6.78;1.35;;;17.50;92.60;;;;;;5071746;28;20028;-65
2023/01/01 08:21:51;;;;;;;3.60;0.65;;;17.50;92.50;;;;;;5071348;28;20031;-64
2023/01/01 08:24:16;;;;;;;4.78;0.88;;;17.60;92.60;;;;;;5072146;28;20035;-64
2023/01/01 08:26:42;;;;;;;4.25;1.25;;;17.50;92.60;;;;;;5055107;28;20036;-65
2023/01/01 08:29:10;;;;;;;3.72;0.90;;;17.50;92.50;;;;;;5062397;28;20036;-64
2023/01/01 08:31:35;;;;;;;5.22;1.33;;;17.60;92.50;;;;;;5063941;28;20036;-64
2023/01/01 08:34:01;;;;;;;5.20;1.67;;;17.50;92.50;;;;;;5072245;28;20094;-64
2023/01/01 08:36:26;;;;;;;3.47;1.10;;;17.40;92.70;;;;;;5072221;28;20070;-64
2023/01/01 08:38:52;;;;;;;5.72;1.50;;;17.30;92.90;;;;;;5071977;28;20039;-64
2023/01/01 08:41:17;;;;;;;6.28;1.20;;;17.30;92.90;;;;;;5069636;28;20027;-64
2023/01/01 08:43:43;;;;;;;4.60;1.35;;;17.30;92.80;;;;;;5065415;28;20067;-64
2023/01/01 08:46:08;;;;;;;4.43;1.30;;;17.40;92.60;;;;;;5071218;28;20052;-64
2023/01/01 08:48:34;;;;;;;8.10;1.75;;;17.00;93.00;;;;;;5068831;28;20041;-66
2023/01/01 08:51:00;;;;;;;12.68;2.53;;;16.90;93.50;;;;;;5071060;28;20485;-66
2023/01/01 08:53:27;;;;;;;7.78;1.42;;;16.80;93.60;;;;;;5070812;28;20028;-66
2023/01/01 08:55:58;;;;;;;9.38;2.20;;;16.70;93.90;;;;;;5071334;28;20040;-66
2023/01/01 08:58:24;;;;;;;5.10;2.35;;;16.80;93.90;;;;;;5064641;28;20426;-66
2023/01/01 09:00:49;;;;;;;9.02;1.48;;;16.70;93.80;;;;;;5071786;28;20111;-66
2023/01/01 09:03:15;;;;;;;7.60;1.35;;;16.80;93.80;;;;;;5072029;28;20082;-66
2023/01/01 09:05:44;;;;;;;10.00;1.75;;;16.90;93.60;;;;;;5070851;28;20469;-66
2023/01/01 09:08:10;;;;;;;7.65;2.05;;;17.10;93.70;;;;;;5067475;28;20025;-66
2023/01/01 09:10:36;;;;;;;12.90;2.33;;;17.10;93.60;;;;;;5061122;28;20496;-66
2023/01/01 09:13:02;;;;;;;10.30;2.15;;;17.20;93.40;;;;;;5071751;28;20024;-66
2023/01/01 09:15:27;;;;;;;8.13;2.15;;;17.00;93.50;;;;;;5070211;28;20036;-66
2023/01/01 09:17:53;;;;;;;5.82;1.95;;;16.90;93.50;;;;;;5069719;28;20032;-66
2023/01/01 09:20:18;;;;;;;7.75;1.50;;;17.00;93.40;;;;;;5070645;28;20067;-66
2023/01/01 09:22:44;;;;;;;9.75;1.95;;;17.10;93.40;;;;;;5062838;28;20021;-66
2023/01/01 09:25:09;;;;;;;5.60;1.25;;;17.10;93.30;;;;;;5056295;28;20508;-67
2023/01/01 09:27:35;;;;;;;9.20;1.60;;;17.30;93.30;;;;;;5066003;28;20021;-67
2023/01/01 09:30:00;;;;;;;6.85;1.63;;;17.30;93.30;;;;;;5057256;28;20055;-66
2023/01/01 09:32:26;;;;;;;13.80;2.20;;;17.30;93.40;;;;;;5066130;28;20090;-66
2023/01/01 09:34:52;;;;;;;6.88;1.90;;;17.20;93.60;;;;;;5059303;28;20045;-66
2023/01/01 09:37:17;;;;;;;9.00;1.83;;;17.10;93.70;;;;;;5055240;28;20021;-66
2023/01/01 09:39:43;;;;;;;10.60;2.75;;;17.10;93.80;;;;;;5058591;28;20083;-66
2023/01/01 09:42:46;;;;;;;8.13;2.58;;;17.20;93.60;;;;;;5055072;28;20048;-66
2023/01/01 09:45:32;;;;;;;6.10;1.80;;;17.20;93.70;;;;;;5068490;28;20028;-66
2023/01/01 09:48:03;;;;;;;14.63;2.75;;;17.20;93.60;;;;;;5056454;28;20119;-66
2023/01/01 09:50:41;;;;;;;14.85;2.50;;;17.20;93.60;;;;;;5065983;28;20017;-65
2023/01/01 09:53:16;;;;;;;12.93;2.03;;;17.30;93.60;;;;;;5058763;28;20107;-65
2023/01/01 09:55:59;;;;;;;13.43;2.22;;;17.40;93.60;;;;;;5062133;28;20050;-66
2023/01/01 09:58:32;;;;;;;11.38;1.73;;;17.40;93.60;;;;;;5060336;28;20024;-66
2023/01/01 10:01:11;;;;;;;9.23;2.10;;;17.50;93.70;;;;;;5064551;28;20021;-64
2023/01/01 10:03:47;;;;;;;9.52;1.80;;;17.50;93.80;;;;;;5066760;28;20591;-66
2023/01/01 10:06:20;;;;;;;5.93;1.95;;;17.50;93.70;;;;;;5065883;28;20028;-65
2023/01/01 10:08:57;;;;;;;7.43;1.98;;;17.50;93.90;;;;;;5067108;28;20047;-65
2023/01/01 10:11:41;;;;;;;8.02;1.65;;;17.50;93.90;;;;;;5067230;28;20031;-65
2023/01/01 10:14:22;;;;;;;6.22;1.45;;;17.60;93.90;;;;;;5068573;28;20036;-66
2023/01/01 10:16:53;;;;;;;6.40;1.65;;;17.60;93.90;;;;;;5070506;28;20016;-66
2023/01/01 10:19:26;;;;;;;10.10;2.20;;;17.70;94.00;;;;;;5059486;28;20375;-66
2023/01/01 10:21:56;;;;;;;8.05;2.08;;;17.70;94.00;;;;;;5057782;28;20422;-65
2023/01/01 10:24:30;;;;;;;8.23;1.95;;;17.70;93.90;;;;;;5068428;28;20024;-65
2023/01/01 10:26:57;;;;;;;9.93;2.15;;;17.70;93.90;;;;;;5058200;28;20047;-64
2023/01/01 10:29:46;;;;;;;11.55;2.22;;;17.70;93.70;;;;;;5063989;28;20029;-65
2023/01/01 10:32:27;;;;;;;12.57;2.13;;;17.70;93.70;;;;;;5065340;28;20049;-65
2023/01/01 10:34:53;;;;;;;7.65;1.80;;;17.70;93.70;;;;;;5056210;28;20029;-66
2023/01/01 10:37:19;;;;;;;9.30;1.73;;;17.70;93.70;;;;;;5067458;28;20039;-66
2023/01/01 10:39:46;;;;;;;8.25;1.38;;;17.70;93.60;;;;;;5059422;28;20107;-66
2023/01/01 10:42:13;;;;;;;11.70;1.98;;;17.70;93.60;;;;;;5068970;28;20070;-65
2023/01/01 10:44:39;;;;;;;7.93;2.00;;;17.70;93.50;;;;;;5062923;28;20052;-65
2023/01/01 10:47:28;;;;;;;5.38;1.65;;;17.70;93.60;;;;;;5066946;28;20358;-65
2023/01/01 10:49:55;;;;;;;8.07;2.10;;;17.70;93.50;;;;;;5070057;28;20076;-65
2023/01/01 10:52:30;;;;;;;10.73;2.40;;;17.70;93.50;;;;;;5062909;28;21155;-64
2023/01/01 10:54:57;;;;;;;10.88;1.98;;;17.70;93.50;;;;;;5069370;28;20043;-65
2023/01/01 10:57:26;;;;;;;8.23;1.90;;;17.80;93.40;;;;;;5056029;28;20025;-65
2023/01/01 10:59:51;;;;;;;8.35;1.92;;;17.70;93.30;;;;;;5062870;28;20032;-65
2023/01/01 11:02:24;;;;;;;7.25;1.70;;;17.70;93.30;;;;;;5064722;28;20056;-64
2023/01/01 11:04:51;;;;;;;9.82;2.28;;;17.70;93.30;;;;;;5056522;28;20027;-65
2023/01/01 11:07:20;;;;;;;6.45;1.92;;;17.70;93.10;;;;;;5068327;28;20115;-65
2023/01/01 11:09:48;;;;;;;5.47;2.17;;;17.80;93.10;;;;;;5063398;28;20029;-65
2023/01/01 11:12:21;;;;;;;8.20;2.13;;;17.70;93.10;;;;;;5069618;28;20029;-65
2023/01/01 11:14:52;;;;;;;8.90;2.17;;;17.70;93.00;;;;;;5064200;28;20032;-65
2023/01/01 11:17:35;;;;;;;9.32;2.28;;;17.70;93.10;;;;;;5067521;28;20020;-67
2023/01/01 11:20:02;;;;;;;;;;;17.70;93.10;;;;;;5059872;28;20033;-65
2023/01/01 11:22:45;;;;;;;10.23;2.20;;;17.70;93.00;;;;;;5069077;28;19938;-65
2023/01/01 11:25:27;;;;;;;11.75;2.17;;;17.80;93.00;;;;;;5069871;28;20021;-65
2023/01/01 11:28:19;;;;;;;14.07;2.35;;;17.80;92.90;;;;;;5060000;28;20043;-66
2023/01/01 11:31:05;;;;;;;8.10;2.00;;;17.80;92.90;;;;;;5068409;28;20494;-67
2023/01/01 11:33:34;;;;;;;11.68;2.42;;;17.80;92.90;;;;;;5069369;28;20381;-66
2023/01/01 11:36:00;;;;;;;12.75;1.80;;;17.90;92.90;;;;;;5071995;28;20068;-67
2023/01/01 11:38:26;;;;;;;6.63;2.05;;;17.90;93.00;;;;;;5068668;28;20063;-67
2023/01/01 11:40:55;;;;;;;8.68;1.80;;;17.90;93.00;;;;;;5072300;28;20028;-67
2023/01/01 11:43:24;;;;;;;9.00;2.13;;;17.90;93.00;;;;;;5067348;28;20416;-69
2023/01/01 11:45:51;;;;;;;8.98;2.45;;;17.90;93.10;;;;;;5071829;28;20024;-66
2023/01/01 11:48:24;;;;;;;10.63;1.98;;;17.90;93.00;;;;;;5071854;28;20029;-67
2023/01/01 11:51:12;;;;;;;8.43;1.63;;;18.00;93.00;;;;;;5072137;28;20103;-67
2023/01/01 11:53:40;;;;;;;8.80;2.00;;;18.00;92.90;;;;;;5069679;28;20063;-66
2023/01/01 11:56:21;;;;;;;8.52;2.00;;;18.00;93.00;;;;;;5070577;28;20554;-65
2023/01/01 11:59:17;;;;;;;26.38;2.80;;;18.00;93.00;;;;;;5071604;28;20086;-67
2023/01/01 12:01:57;;;;;;;10.00;1.92;;;18.00;93.10;;;;;;5069785;28;20483;-68
2023/01/01 12:04:42;;;;;;;13.50;2.65;;;18.00;93.10;;;;;;5072224;28;20073;-67
2023/01/01 12:07:18;;;;;;;13.48;2.10;;;18.10;93.00;;;;;;5065534;28;20029;-68
2023/01/01 12:10:02;;;;;;;13.88;2.60;;;18.10;93.00;;;;;;5066889;28;20447;-68
2023/01/01 12:12:31;;;;;;;16.70;2.08;;;18.10;93.00;;;;;;5062354;28;20016;-66
2023/01/01 12:15:25;;;;;;;11.48;1.98;;;18.00;92.90;;;;;;5059689;28;20064;-66
2023/01/01 12:18:13;;;;;;;17.85;2.60;;;18.10;92.90;;;;;;5067517;28;20020;-67
2023/01/01 12:21:07;;;;;;;15.10;2.20;;;18.10;92.80;;;;;;5069377;28;20465;-68
2023/01/01 12:23:33;;;;;;;12.07;2.20;;;18.00;92.70;;;;;;5062270;28;20382;-69
2023/01/01 12:26:10;;;;;;;15.43;2.42;;;18.00;92.60;;;;;;5071244;28;20389;-68
2023/01/01 12:29:16;;;;;;;10.48;1.77;;;18.00;92.60;;;;;;5070595;28;20483;-66
2023/01/01 12:32:15;;;;;;;11.98;2.20;;;18.00;92.50;;;;;;5039477;28;20044;-67
2023/01/01 12:34:49;;;;;;;10.68;2.25;;;18.10;92.50;;;;;;5070496;28;20036;-67
2023/01/01 12:37:33;;;;;;;11.70;2.10;;;18.00;92.40;;;;;;5070180;28;20457;-69
2023/01/01 12:40:26;;;;;;;10.55;2.03;;;18.10;92.30;;;;;;5070017;28;20044;-67
2023/01/01 12:43:02;;;;;;;10.07;2.35;;;18.00;92.20;;;;;;5069649;28;20025;-68
2023/01/01 12:46:05;;;;;;;12.02;2.20;;;18.00;91.80;;;;;;5069453;28;20087;-67
2023/01/01 12:48:58;;;;;;;8.05;2.53;;;18.00;91.60;;;;;;5071582;28;20032;-68
2023/01/01 12:51:42;;;;;;;7.95;2.28;;;18.00;91.60;;;;;;5070581;28;20390;-69
2023/01/01 12:54:42;;;;;;;9.20;2.15;;;18.00;91.70;;;;;;5063777;28;20048;-70
2023/01/01 12:57:43;;;;;;;10.45;2.22;;;17.90;91.80;;;;;;5072440;28;20025;-67
2023/01/01 13:00:17;;;;;;;11.95;2.35;;;17.90;91.80;;;;;;5067929;28;20401;-67
2023/01/01 13:02:49;;;;;;;8.82;2.45;;;17.90;91.70;;;;;;5072573;28;20024;-68
2023/01/01 13:05:23;;;;;;;7.72;2.08;;;18.00;91.80;;;;;;5074493;28;20031;-69
2023/01/01 13:07:56;;;;;;;9.43;1.90;;;18.00;91.70;;;;;;5075190;28;20016;-67
2023/01/01 13:10:26;;;;;;;13.23;2.85;;;18.10;91.60;;;;;;5076153;28;20100;-68